Wetterdaten: Woche 20.09.04 - 26.09.04 (KW39)
Datum Zeit Temperatur Luftfeuchte Luftdruck Niederschlag Taupunkt Windchill Wind
20.09.2004 00:00 14,0 C 98 % 1020 hPa 0,0 l/m 13,7 C 14,0 C 0,0 km/h (0 Bft)
20.09.2004 01:00 14,0 C 98 % 1020 hPa 0,0 l/m 13,7 C 14,0 C 0,0 km/h (0 Bft)
20.09.2004 02:00 13,8 C 98 % 1020 hPa 0,0 l/m 13,5 C 13,8 C 0,0 km/h (0 Bft)
20.09.2004 03:00 13,5 C 98 % 1020 hPa 0,0 l/m 13,2 C 13,5 C 0,0 km/h (0 Bft)
20.09.2004 04:00 13,3 C 98 % 1019 hPa 0,0 l/m 13,0 C 13,3 C 0,0 km/h (0 Bft)
20.09.2004 05:00 13,2 C 98 % 1019 hPa 0,0 l/m 12,9 C 13,2 C 0,0 km/h (0 Bft)
20.09.2004 06:00 13,2 C 98 % 1019 hPa 0,0 l/m 12,9 C 13,2 C 0,4 km/h (0 Bft)
20.09.2004 07:00 13,2 C 98 % 1019 hPa 0,0 l/m 12,9 C 13,2 C 0,0 km/h (0 Bft)
20.09.2004 08:00 13,5 C 98 % 1019 hPa 0,0 l/m 13,1 C 13,5 C 0,0 km/h (0 Bft)
20.09.2004 09:00 14,0 C 98 % 1019 hPa 0,0 l/m 13,7 C 13,8 C 2,7 km/h (1 Bft)
20.09.2004 10:00 15,0 C 94 % 1019 hPa 0,0 l/m 14,0 C 14,5 C 6,7 km/h (2 Bft)
20.09.2004 11:00 15,8 C 86 % 1020 hPa 0,0 l/m 13,5 C 15,3 C 6,9 km/h (2 Bft)
20.09.2004 12:00 16,4 C 79 % 1019 hPa 0,0 l/m 12,8 C 15,0 C 10,5 km/h (2 Bft)
20.09.2004 13:00 17,3 C 71 % 1019 hPa 0,0 l/m 12,0 C 14,8 C 14,3 km/h (3 Bft)
20.09.2004 14:00 17,7 C 66 % 1019 hPa 0,0 l/m 11,3 C 15,3 C 14,9 km/h (3 Bft)
20.09.2004 15:00 17,4 C 65 % 1018 hPa 0,0 l/m 10,7 C 15,3 C 12,3 km/h (3 Bft)
20.09.2004 16:00 17,3 C 64 % 1017 hPa 0,0 l/m 10,3 C 15,4 C 12,5 km/h (3 Bft)
20.09.2004 17:00 17,4 C 62 % 1017 hPa 0,0 l/m 10,0 C 14,8 C 15,1 km/h (3 Bft)
20.09.2004 18:00 16,3 C 66 % 1017 hPa 0,0 l/m 9,9 C 14,9 C 10,2 km/h (2 Bft)
20.09.2004 19:00 14,8 C 73 % 1017 hPa 0,0 l/m 10,0 C 12,9 C 11,8 km/h (2 Bft)
20.09.2004 20:00 14,0 C 75 % 1017 hPa 0,0 l/m 9,7 C 12,0 C 11,7 km/h (2 Bft)
20.09.2004 21:00 13,6 C 76 % 1018 hPa 0,0 l/m 9,4 C 12,5 C 9,7 km/h (2 Bft)
20.09.2004 22:00 13,3 C 78 % 1018 hPa 0,0 l/m 9,6 C 11,0 C 12,2 km/h (2 Bft)
20.09.2004 23:00 12,9 C 72 % 1018 hPa 0,0 l/m 7,9 C 10,6 C 12,2 km/h (2 Bft)
21.09.2004 00:00 12,3 C 72 % 1018 hPa 0,0 l/m 7,5 C 8,4 C 15,3 km/h (3 Bft)
21.09.2004 01:00 12,3 C 74 % 1018 hPa 0,0 l/m 7,7 C 7,7 C 18,6 km/h (3 Bft)
21.09.2004 02:00 12,4 C 73 % 1018 hPa 0,0 l/m 7,8 C 8,5 C 16,9 km/h (3 Bft)
21.09.2004 03:00 12,2 C 74 % 1018 hPa 0,0 l/m 7,6 C 7,7 C 18,7 km/h (3 Bft)
21.09.2004 04:00 12,2 C 73 % 1018 hPa 0,0 l/m 7,6 C 8,6 C 15,6 km/h (3 Bft)
21.09.2004 05:00 12,1 C 75 % 1018 hPa 0,0 l/m 7,9 C 8,2 C 16,3 km/h (3 Bft)
21.09.2004 06:00 12,4 C 72 % 1018 hPa 0,0 l/m 7,6 C 7,6 C 19,5 km/h (3 Bft)
21.09.2004 07:00 12,5 C 71 % 1018 hPa 0,0 l/m 7,4 C 7,9 C 19,7 km/h (3 Bft)
21.09.2004 08:00 12,9 C 71 % 1018 hPa 0,0 l/m 7,8 C 8,1 C 19,8 km/h (3 Bft)
21.09.2004 09:00 13,4 C 72 % 1018 hPa 0,0 l/m 8,4 C 8,6 C 20,5 km/h (4 Bft)
21.09.2004 10:00 14,7 C 69 % 1019 hPa 0,0 l/m 9,2 C 9,6 C 23,2 km/h (4 Bft)
21.09.2004 11:00 15,3 C 66 % 1019 hPa 0,0 l/m 9,1 C 10,2 C 24,4 km/h (4 Bft)
21.09.2004 12:00 15,2 C 68 % 1019 hPa 0,0 l/m 9,3 C 10,5 C 21,7 km/h (4 Bft)
21.09.2004 13:00 16,3 C 64 % 1019 hPa 0,0 l/m 9,4 C 11,7 C 23,1 km/h (4 Bft)
21.09.2004 14:00 14,8 C 68 % 1019 hPa 0,0 l/m 9,1 C 10,6 C 18,6 km/h (3 Bft)
21.09.2004 15:00 15,3 C 64 % 1019 hPa 0,0 l/m 8,5 C 11,3 C 19,3 km/h (3 Bft)
21.09.2004 16:00 15,3 C 57 % 1019 hPa 0,0 l/m 6,9 C 9,9 C 25,6 km/h (4 Bft)
21.09.2004 17:00 15,3 C 52 % 1019 hPa 0,0 l/m 5,5 C 10,6 C 21,1 km/h (4 Bft)
21.09.2004 18:00 14,7 C 53 % 1020 hPa 0,0 l/m 5,1 C 10,6 C 17,9 km/h (3 Bft)
21.09.2004 19:00 13,8 C 57 % 1020 hPa 0,0 l/m 5,3 C 10,4 C 15,7 km/h (3 Bft)
21.09.2004 20:00 12,3 C 66 % 1020 hPa 0,0 l/m 6,1 C 11,1 C 9,1 km/h (2 Bft)
21.09.2004 21:00 11,6 C 68 % 1020 hPa 0,0 l/m 5,9 C 8,6 C 13,8 km/h (3 Bft)
21.09.2004 22:00 11,0 C 69 % 1020 hPa 0,0 l/m 5,5 C 9,2 C 10,6 km/h (2 Bft)
21.09.2004 23:00 10,2 C 72 % 1020 hPa 0,0 l/m 5,4 C 9,0 C 9,3 km/h (2 Bft)
22.09.2004 00:00 9,4 C 74 % 1020 hPa 0,0 l/m 5,0 C 9,0 C 6,9 km/h (2 Bft)
22.09.2004 01:00 8,4 C 79 % 1020 hPa 0,0 l/m 4,9 C 7,9 C 5,1 km/h (1 Bft)
22.09.2004 02:00 8,6 C 79 % 1020 hPa 0,0 l/m 5,2 C 7,3 C 9,0 km/h (2 Bft)
22.09.2004 03:00 8,9 C 78 % 1020 hPa 0,0 l/m 5,3 C 7,3 C 9,9 km/h (2 Bft)
22.09.2004 04:00 9,3 C 77 % 1020 hPa 0,0 l/m 5,4 C 7,0 C 10,8 km/h (2 Bft)
22.09.2004 05:00 9,7 C 69 % 1020 hPa 0,0 l/m 4,4 C 6,6 C 13,2 km/h (3 Bft)
22.09.2004 06:00 9,5 C 71 % 1021 hPa 0,0 l/m 4,6 C 6,7 C 12,1 km/h (2 Bft)
22.09.2004 07:00 9,4 C 72 % 1021 hPa 0,0 l/m 4,7 C 6,1 C 13,7 km/h (3 Bft)
22.09.2004 08:00 9,6 C 72 % 1021 hPa 0,0 l/m 4,8 C 6,5 C 13,3 km/h (3 Bft)
22.09.2004 09:00 10,2 C 68 % 1021 hPa 0,0 l/m 4,7 C 5,8 C 16,9 km/h (3 Bft)
22.09.2004 10:00 10,9 C 61 % 1021 hPa 0,0 l/m 3,7 C 6,6 C 17,0 km/h (3 Bft)
22.09.2004 11:00 11,2 C 61 % 1022 hPa 0,0 l/m 3,9 C 7,3 C 15,9 km/h (3 Bft)
22.09.2004 12:00 11,7 C 51 % 1021 hPa 0,0 l/m 1,9 C 6,0 C 21,2 km/h (4 Bft)
22.09.2004 13:00 11,8 C 53 % 1021 hPa 0,0 l/m 2,5 C 6,8 C 19,5 km/h (3 Bft)
22.09.2004 14:00 11,8 C 55 % 1021 hPa 0,0 l/m 3,1 C 6,9 C 18,4 km/h (3 Bft)
22.09.2004 15:00 12,1 C 58 % 1020 hPa 0,0 l/m 4,0 C 7,6 C 17,9 km/h (3 Bft)
22.09.2004 16:00 12,3 C 57 % 1020 hPa 0,0 l/m 4,2 C 8,0 C 17,7 km/h (3 Bft)
22.09.2004 17:00 12,4 C 57 % 1019 hPa 0,0 l/m 4,2 C 8,9 C 15,0 km/h (3 Bft)
22.09.2004 18:00 11,8 C 59 % 1019 hPa 0,0 l/m 4,0 C 7,1 C 18,6 km/h (3 Bft)
22.09.2004 19:00 11,5 C 62 % 1018 hPa 0,0 l/m 4,5 C 6,9 C 17,7 km/h (3 Bft)
22.09.2004 20:00 11,7 C 61 % 1018 hPa 0,0 l/m 4,5 C 5,4 C 23,8 km/h (4 Bft)
22.09.2004 21:00 12,0 C 61 % 1018 hPa 0,0 l/m 4,7 C 5,5 C 25,7 km/h (4 Bft)
22.09.2004 22:00 12,1 C 63 % 1017 hPa 0,0 l/m 5,2 C 6,1 C 24,9 km/h (4 Bft)
22.09.2004 23:00 12,1 C 64 % 1016 hPa 0,0 l/m 5,6 C 6,0 C 24,3 km/h (4 Bft)
23.09.2004 00:00 12,1 C 66 % 1016 hPa 0,0 l/m 6,0 C 6,2 C 24,5 km/h (4 Bft)
23.09.2004 01:00 12,1 C 68 % 1015 hPa 0,0 l/m 6,4 C 6,4 C 22,5 km/h (4 Bft)
23.09.2004 02:00 12,2 C 70 % 1015 hPa 0,0 l/m 6,9 C 6,1 C 24,7 km/h (4 Bft)
23.09.2004 03:00 12,3 C 71 % 1014 hPa 0,0 l/m 7,3 C 5,8 C 26,1 km/h (4 Bft)
23.09.2004 04:00 12,3 C 73 % 1014 hPa 0,0 l/m 7,6 C 5,9 C 27,0 km/h (4 Bft)
23.09.2004 05:00 11,4 C 84 % 1014 hPa 1,0 l/m 8,9 C 5,7 C 22,4 km/h (4 Bft)
23.09.2004 06:00 11,3 C 88 % 1014 hPa 0,0 l/m 9,5 C 5,3 C 22,8 km/h (4 Bft)
23.09.2004 07:00 11,3 C 91 % 1014 hPa 0,0 l/m 9,9 C 5,4 C 22,9 km/h (4 Bft)
23.09.2004 08:00 11,8 C 88 % 1014 hPa 0,0 l/m 9,9 C 6,3 C 21,4 km/h (4 Bft)
23.09.2004 09:00 12,5 C 84 % 1014 hPa 0,0 l/m 9,9 C 6,1 C 26,3 km/h (4 Bft)
23.09.2004 10:00 13,5 C 79 % 1013 hPa 0,0 l/m 9,9 C 7,3 C 27,3 km/h (4 Bft)
23.09.2004 11:00 14,9 C 71 % 1013 hPa 0,0 l/m 9,7 C 8,7 C 29,5 km/h (5 Bft)
23.09.2004 12:00 14,8 C 73 % 1013 hPa 0,0 l/m 9,9 C 9,0 C 27,2 km/h (4 Bft)
23.09.2004 13:00 14,9 C 74 % 1013 hPa 0,0 l/m 10,4 C 9,4 C 25,6 km/h (4 Bft)
23.09.2004 14:00 15,2 C 75 % 1011 hPa 0,0 l/m 10,8 C 9,6 C 26,6 km/h (4 Bft)
23.09.2004 15:00 14,6 C 85 % 1010 hPa 0,0 l/m 12,2 C 9,9 C 20,3 km/h (4 Bft)
23.09.2004 16:00 15,4 C 79 % 1009 hPa 0,0 l/m 11,8 C 9,7 C 26,8 km/h (4 Bft)
23.09.2004 17:00 15,6 C 76 % 1009 hPa 0,0 l/m 11,3 C 9,8 C 27,8 km/h (4 Bft)
23.09.2004 18:00 15,0 C 81 % 1009 hPa 0,0 l/m 11,7 C 9,3 C 26,9 km/h (4 Bft)
23.09.2004 19:00 14,5 C 86 % 1008 hPa 0,0 l/m 12,3 C 9,9 C 21,2 km/h (4 Bft)
23.09.2004 20:00 14,7 C 85 % 1008 hPa 0,0 l/m 12,2 C 9,4 C 24,6 km/h (4 Bft)
23.09.2004 21:00 14,8 C 87 % 1008 hPa 0,0 l/m 12,6 C 9,7 C 22,8 km/h (4 Bft)
23.09.2004 22:00 13,3 C 89 % 1008 hPa 4,0 l/m 11,5 C 7,9 C 21,6 km/h (4 Bft)
23.09.2004 23:00 9,3 C 92 % 1008 hPa 2,0 l/m 8,0 C 3,7 C 18,9 km/h (3 Bft)
24.09.2004 00:00 8,2 C 93 % 1008 hPa 1,0 l/m 7,2 C 4,6 C 13,1 km/h (3 Bft)
24.09.2004 01:00 8,2 C 95 % 1008 hPa 0,0 l/m 7,5 C 8,1 C 1,9 km/h (1 Bft)
24.09.2004 02:00 8,5 C 96 % 1008 hPa 0,0 l/m 7,9 C 8,2 C 3,8 km/h (1 Bft)
24.09.2004 03:00 8,5 C 97 % 1008 hPa 0,0 l/m 8,1 C 8,4 C 1,0 km/h (0 Bft)
24.09.2004 04:00 8,5 C 97 % 1008 hPa 0,0 l/m 8,0 C 8,2 C 3,0 km/h (1 Bft)
24.09.2004 05:00 8,4 C 98 % 1008 hPa 2,0 l/m 8,1 C 7,1 C 8,1 km/h (2 Bft)
24.09.2004 06:00 8,2 C 98 % 1008 hPa 0,0 l/m 7,9 C 7,2 C 6,8 km/h (2 Bft)
24.09.2004 07:00 7,6 C 98 % 1009 hPa 1,0 l/m 7,3 C 6,9 C 5,7 km/h (1 Bft)
24.09.2004 08:00 7,6 C 98 % 1012 hPa 0,0 l/m 7,3 C 6,3 C 8,5 km/h (2 Bft)
24.09.2004 09:00 8,8 C 98 % 1013 hPa 0,0 l/m 8,4 C 6,6 C 10,2 km/h (2 Bft)
24.09.2004 10:00 10,8 C 78 % 1013 hPa 0,0 l/m 7,0 C 7,6 C 13,8 km/h (3 Bft)
24.09.2004 11:00 11,1 C 70 % 1013 hPa 0,0 l/m 5,8 C 8,3 C 12,1 km/h (2 Bft)
24.09.2004 12:00 10,7 C 68 % 1013 hPa 0,0 l/m 5,1 C 7,5 C 14,2 km/h (3 Bft)
24.09.2004 13:00 10,7 C 72 % 1013 hPa 0,0 l/m 5,8 C 8,6 C 11,7 km/h (2 Bft)
24.09.2004 14:00 8,8 C 83 % 1013 hPa 0,0 l/m 6,1 C 6,5 C 9,8 km/h (2 Bft)
24.09.2004 15:00 10,0 C 81 % 1013 hPa 0,0 l/m 6,8 C 9,5 C 5,4 km/h (1 Bft)
24.09.2004 16:00 10,3 C 83 % 1014 hPa 0,0 l/m 7,4 C 8,3 C 9,0 km/h (2 Bft)
24.09.2004 17:00 9,7 C 78 % 1014 hPa 0,0 l/m 6,1 C 7,9 C 9,5 km/h (2 Bft)
24.09.2004 18:00 9,1 C 88 % 1014 hPa 0,0 l/m 7,2 C 5,7 C 12,8 km/h (3 Bft)
24.09.2004 19:00 8,4 C 93 % 1014 hPa 0,0 l/m 7,4 C 6,3 C 10,4 km/h (2 Bft)
24.09.2004 20:00 8,1 C 92 % 1016 hPa 0,0 l/m 7,0 C 7,9 C 3,0 km/h (1 Bft)
24.09.2004 21:00 7,9 C 96 % 1016 hPa 0,0 l/m 7,3 C 7,2 C 4,0 km/h (1 Bft)
24.09.2004 22:00 7,3 C 97 % 1016 hPa 0,0 l/m 6,9 C 7,0 C 3,3 km/h (1 Bft)
24.09.2004 23:00 7,1 C 98 % 1017 hPa 0,0 l/m 6,8 C 7,0 C 1,4 km/h (1 Bft)
25.09.2004 00:00 7,0 C 98 % 1017 hPa 0,0 l/m 6,8 C 6,9 C 2,2 km/h (1 Bft)
25.09.2004 01:00 7,1 C 96 % 1017 hPa 0,0 l/m 6,6 C 6,7 C 4,9 km/h (1 Bft)
25.09.2004 02:00 6,6 C 95 % 1016 hPa 0,0 l/m 5,9 C 6,5 C 1,9 km/h (1 Bft)
25.09.2004 03:00 6,4 C 97 % 1017 hPa 0,0 l/m 5,9 C 6,4 C 0,0 km/h (0 Bft)
25.09.2004 04:00 6,7 C 97 % 1017 hPa 1,0 l/m 6,3 C 6,6 C 3,3 km/h (1 Bft)
25.09.2004 05:00 6,9 C 98 % 1017 hPa 1,0 l/m 6,6 C 6,6 C 5,6 km/h (1 Bft)
25.09.2004 06:00 7,0 C 98 % 1017 hPa 0,0 l/m 6,7 C 5,7 C 9,0 km/h (2 Bft)
25.09.2004 07:00 7,2 C 98 % 1018 hPa 0,0 l/m 6,9 C 5,5 C 8,5 km/h (2 Bft)
25.09.2004 08:00 7,4 C 98 % 1018 hPa 1,0 l/m 7,1 C 7,1 C 1,2 km/h (1 Bft)
25.09.2004 09:00 7,8 C 98 % 1018 hPa 1,0 l/m 7,5 C 6,8 C 7,4 km/h (2 Bft)
25.09.2004 10:00 8,1 C 98 % 1019 hPa 1,0 l/m 7,8 C 6,8 C 8,3 km/h (2 Bft)
25.09.2004 11:00 8,4 C 98 % 1019 hPa 1,0 l/m 8,1 C 6,3 C 10,3 km/h (2 Bft)
25.09.2004 12:00 9,1 C 98 % 1019 hPa 1,0 l/m 8,8 C 7,4 C 10,1 km/h (2 Bft)
25.09.2004 13:00 9,2 C 96 % 1019 hPa 0,0 l/m 8,6 C 7,6 C 9,8 km/h (2 Bft)
25.09.2004 14:00 9,5 C 94 % 1019 hPa 0,0 l/m 8,6 C 7,3 C 10,3 km/h (2 Bft)
25.09.2004 15:00 10,2 C 85 % 1019 hPa 0,0 l/m 7,8 C 8,2 C 11,2 km/h (2 Bft)
25.09.2004 16:00 10,3 C 84 % 1019 hPa 0,0 l/m 7,7 C 9,8 C 4,6 km/h (1 Bft)
25.09.2004 17:00 10,4 C 83 % 1020 hPa 0,0 l/m 7,7 C 10,4 C 2,2 km/h (1 Bft)
25.09.2004 18:00 9,4 C 88 % 1020 hPa 2,0 l/m 7,6 C 8,4 C 7,0 km/h (2 Bft)
25.09.2004 19:00 8,8 C 92 % 1021 hPa 0,0 l/m 7,5 C 8,8 C 0,0 km/h (0 Bft)
25.09.2004 20:00 8,3 C 93 % 1021 hPa 0,0 l/m 7,3 C 8,0 C 5,1 km/h (1 Bft)
25.09.2004 21:00 7,7 C 94 % 1021 hPa 0,0 l/m 6,8 C 7,7 C 0,0 km/h (0 Bft)
25.09.2004 22:00 7,5 C 96 % 1022 hPa 0,0 l/m 6,8 C 7,5 C 0,0 km/h (0 Bft)
25.09.2004 23:00 7,0 C 96 % 1021 hPa 0,0 l/m 6,5 C 7,0 C 0,0 km/h (0 Bft)
26.09.2004 00:00 6,7 C 98 % 1021 hPa 0,0 l/m 6,4 C 6,7 C 0,0 km/h (0 Bft)
26.09.2004 01:00 6,8 C 98 % 1022 hPa 0,0 l/m 6,5 C 6,8 C 1,8 km/h (1 Bft)
26.09.2004 02:00 7,0 C 98 % 1022 hPa 0,0 l/m 6,7 C 7,0 C 2,6 km/h (1 Bft)
26.09.2004 03:00 7,1 C 98 % 1022 hPa 0,0 l/m 6,8 C 6,9 C 5,3 km/h (1 Bft)
26.09.2004 04:00 7,3 C 98 % 1022 hPa 0,0 l/m 7,0 C 7,0 C 3,9 km/h (1 Bft)
26.09.2004 05:00 7,2 C 98 % 1021 hPa 0,0 l/m 6,9 C 7,0 C 3,9 km/h (1 Bft)
26.09.2004 06:00 7,1 C 98 % 1021 hPa 0,0 l/m 6,8 C 7,0 C 4,9 km/h (1 Bft)
26.09.2004 07:00 7,2 C 98 % 1021 hPa 1,0 l/m 6,9 C 7,2 C 0,7 km/h (0 Bft)
26.09.2004 08:00 7,3 C 98 % 1022 hPa 0,0 l/m 7,0 C 7,3 C 0,0 km/h (0 Bft)
26.09.2004 09:00 7,6 C 98 % 1022 hPa 0,0 l/m 7,3 C 6,7 C 6,6 km/h (2 Bft)
26.09.2004 10:00 8,1 C 98 % 1022 hPa 0,0 l/m 7,8 C 6,9 C 9,0 km/h (2 Bft)
26.09.2004 11:00 8,4 C 97 % 1022 hPa 0,0 l/m 8,0 C 6,4 C 10,4 km/h (2 Bft)
26.09.2004 12:00 8,5 C 93 % 1022 hPa 0,0 l/m 7,5 C 6,3 C 10,7 km/h (2 Bft)
26.09.2004 13:00 8,7 C 94 % 1022 hPa 1,0 l/m 7,7 C 6,9 C 10,4 km/h (2 Bft)
26.09.2004 14:00 8,5 C 94 % 1022 hPa 0,0 l/m 7,6 C 6,7 C 10,2 km/h (2 Bft)
26.09.2004 15:00 8,3 C 96 % 1022 hPa 0,0 l/m 7,7 C 6,0 C 11,2 km/h (2 Bft)
26.09.2004 16:00 8,3 C 97 % 1022 hPa 0,0 l/m 7,8 C 6,6 C 9,9 km/h (2 Bft)
26.09.2004 17:00 8,3 C 97 % 1022 hPa 0,0 l/m 7,8 C 7,3 C 7,0 km/h (2 Bft)
26.09.2004 18:00 8,2 C 97 % 1022 hPa 0,0 l/m 7,8 C 7,3 C 8,3 km/h (2 Bft)
26.09.2004 19:00 8,2 C 98 % 1023 hPa 0,0 l/m 7,9 C 7,4 C 7,5 km/h (2 Bft)
26.09.2004 20:00 8,2 C 98 % 1024 hPa 0,0 l/m 7,9 C 6,8 C 8,6 km/h (2 Bft)
26.09.2004 21:00 8,3 C 98 % 1024 hPa 0,0 l/m 8,0 C 8,2 C 2,5 km/h (1 Bft)
26.09.2004 22:00 8,2 C 98 % 1024 hPa 0,0 l/m 7,9 C 7,5 C 6,7 km/h (2 Bft)
26.09.2004 23:00 8,2 C 98 % 1024 hPa 0,0 l/m 7,9 C 8,1 C 2,3 km/h (1 Bft)
Min-Datum _ 25.09.04 21.09.04 23.09.04 - 22.09.04 23.09.04 20.09.04
_ Min-Zeit 02:52 17:57 21:37 - 12:18 23:53 00:00
Minimum _ 6,3 C 48 % 1007 hPa - 1,3 C 0,8 C 0,0 km/h (0 Bft)
Max-Datum _ 20.09.04 20.09.04 26.09.04 23.09.04 20.09.04 20.09.04 21.09.04
_ Max-Zeit 14:03 00:00 20:26 22:42 10:39 14:05 16:46
Maximum _ 17,9 C 98 % 1024 hPa 4,0 l/m 14,3 C 17,9 C 57,5 km/h
W (7 Bft)
Durchschnitt _ 11,0 C 82 % 1018 hPa #22,0 l/m 7,9 C 8,5 C 12,1 km/h (2 Bft)

Durchschnitt Minimum Temp.10,7 C
Durchschnitt Maximum Temp.11,4 C